createdAt,value
2022-10-23T00:02:47.002Z,43.02
2022-10-23T00:05:54.889Z,42.72
2022-10-23T00:12:47.141Z,42.47
2022-10-23T00:16:05.312Z,42.55
2022-10-23T00:19:50.821Z,42.39
2022-10-23T00:26:46.383Z,42.13
2022-10-23T00:34:11.252Z,42.73
2022-10-23T00:39:56.795Z,41.43
2022-10-23T00:48:14.186Z,41.01
2022-10-23T00:59:37.056Z,40.19
2022-10-23T01:09:39.332Z,40.17
2022-10-23T01:12:42.605Z,40.02
2022-10-23T01:15:21.503Z,40.30
2022-10-23T01:18:55.197Z,39.78
2022-10-23T01:21:36.050Z,39.69
2022-10-23T01:24:36.022Z,39.65
2022-10-23T01:27:16.254Z,39.64
2022-10-23T01:29:44.992Z,39.57
2022-10-23T01:32:51.450Z,39.57
2022-10-23T01:35:36.193Z,39.72
2022-10-23T01:38:12.465Z,39.79
2022-10-23T01:40:52.329Z,39.69
2022-10-23T01:44:07.380Z,39.61
2022-10-23T01:46:43.454Z,39.64
2022-10-23T01:49:15.963Z,39.74
2022-10-23T01:52:38.932Z,39.56
2022-10-23T01:55:14.711Z,39.16
2022-10-23T01:57:49.454Z,38.96
2022-10-23T02:08:48.479Z,38.82
2022-10-23T02:11:24.447Z,38.65
2022-10-23T02:19:17.771Z,38.57
2022-10-23T02:22:45.138Z,38.45
2022-10-23T02:31:25.174Z,38.48
2022-10-23T02:39:53.485Z,38.92
2022-10-23T02:55:49.873Z,37.98
2022-10-23T02:59:47.421Z,37.84
2022-10-23T03:06:39.560Z,37.52
2022-10-23T03:09:11.068Z,37.29
2022-10-23T03:11:44.775Z,37.10
2022-10-23T03:14:16.332Z,36.99
2022-10-23T03:17:49.126Z,36.96
2022-10-23T03:20:20.029Z,37.06
2022-10-23T03:27:20.991Z,37.17
2022-10-23T03:30:09.673Z,37.01
2022-10-23T03:33:44.776Z,36.82
2022-10-23T03:36:15.979Z,36.57
2022-10-23T03:38:47.082Z,36.39
2022-10-23T03:41:17.054Z,36.44
2022-10-23T03:43:47.901Z,36.48
2022-10-23T03:46:17.809Z,36.45
2022-10-23T03:48:53.305Z,36.38
2022-10-23T03:51:31.467Z,36.26
2022-10-23T03:54:02.167Z,36.24
2022-10-23T03:56:33.337Z,36.11
2022-10-23T03:59:04.492Z,36.17
2022-10-23T04:01:35.507Z,36.32
2022-10-23T04:04:05.490Z,36.44
2022-10-23T04:06:37.442Z,36.56
2022-10-23T04:09:08.958Z,36.56
2022-10-23T04:11:39.591Z,36.59
2022-10-23T04:14:16.127Z,36.70
2022-10-23T04:16:47.837Z,36.70
2022-10-23T04:19:17.843Z,36.54
2022-10-23T04:21:52.222Z,36.36
2022-10-23T04:24:25.618Z,36.10
2022-10-23T04:27:10.140Z,35.94
2022-10-23T04:29:40.245Z,35.78
2022-10-23T04:32:12.709Z,35.67
2022-10-23T04:34:45.388Z,35.58
2022-10-23T04:37:15.900Z,35.66
2022-10-23T04:39:48.212Z,35.81
2022-10-23T04:42:20.086Z,35.82
2022-10-23T04:44:53.261Z,35.80
2022-10-23T04:47:36.463Z,35.94
2022-10-23T04:50:09.081Z,36.01
2022-10-23T04:53:05.564Z,36.03
2022-10-23T04:56:08.505Z,35.85
2022-10-23T04:58:47.472Z,35.79
2022-10-23T05:01:17.110Z,36.18
2022-10-23T05:03:49.466Z,36.07
2022-10-23T05:06:21.946Z,36.08
2022-10-23T05:09:13.307Z,36.16
2022-10-23T05:12:05.342Z,36.08
2022-10-23T05:14:39.965Z,35.98
2022-10-23T05:17:20.491Z,35.82
2022-10-23T05:19:56.341Z,35.71
2022-10-23T05:22:30.144Z,35.36
2022-10-23T05:25:03.265Z,35.20
2022-10-23T05:27:36.936Z,35.04
2022-10-23T05:30:13.542Z,34.95
2022-10-23T05:32:43.465Z,34.95
2022-10-23T05:35:17.827Z,35.04
2022-10-23T05:37:53.477Z,34.99
2022-10-23T05:40:31.278Z,35.04
2022-10-23T05:43:09.682Z,35.51
2022-10-23T05:46:12.050Z,35.36
2022-10-23T05:49:02.804Z,35.39
2022-10-23T05:51:52.741Z,35.20
2022-10-23T05:54:56.033Z,35.33
2022-10-23T05:57:44.993Z,35.09
2022-10-23T06:00:17.258Z,35.12
2022-10-23T06:03:06.068Z,35.13
2022-10-23T06:05:43.300Z,35.03
2022-10-23T06:08:30.000Z,34.72
2022-10-23T06:11:12.320Z,34.70
2022-10-23T06:13:45.835Z,34.57
2022-10-23T06:16:19.156Z,34.54
2022-10-23T06:18:49.278Z,34.58
2022-10-23T06:21:21.440Z,34.46
2022-10-23T06:23:53.654Z,34.45
2022-10-23T06:26:49.317Z,34.51
2022-10-23T06:29:28.899Z,34.63
2022-10-23T06:32:01.894Z,34.78
2022-10-23T06:34:33.443Z,34.79
2022-10-23T06:37:07.786Z,34.90
2022-10-23T06:39:47.034Z,35.02
2022-10-23T06:42:36.981Z,35.19
2022-10-23T06:45:32.868Z,35.11
2022-10-23T06:48:16.239Z,34.96
2022-10-23T06:51:09.083Z,34.93
2022-10-23T06:53:44.517Z,34.99
2022-10-23T06:56:37.087Z,34.69
2022-10-23T06:59:11.564Z,34.58
2022-10-23T07:01:44.266Z,35.08
2022-10-23T07:04:15.476Z,35.37
2022-10-23T07:06:47.867Z,35.43
2022-10-23T07:09:17.426Z,35.47
2022-10-23T07:12:01.330Z,34.82
2022-10-23T07:14:44.107Z,34.63
2022-10-23T07:17:15.780Z,34.62
2022-10-23T07:19:47.673Z,34.69
2022-10-23T07:22:20.184Z,34.59
2022-10-23T07:25:04.775Z,34.62
2022-10-23T07:27:40.931Z,34.51
2022-10-23T07:30:16.196Z,34.35
2022-10-23T07:32:53.311Z,34.22
2022-10-23T07:35:41.462Z,34.01
2022-10-23T07:38:16.376Z,33.95
2022-10-23T07:40:49.192Z,33.96
2022-10-23T07:43:21.712Z,33.98
2022-10-23T07:46:01.187Z,33.96
2022-10-23T07:48:40.448Z,33.86
2022-10-23T07:51:17.528Z,33.82
2022-10-23T07:54:05.182Z,33.83
2022-10-23T07:57:04.233Z,33.86
2022-10-23T08:00:05.343Z,33.79
2022-10-23T08:02:47.422Z,33.69
2022-10-23T08:05:20.787Z,33.58
2022-10-23T08:08:01.406Z,33.50
2022-10-23T08:10:37.367Z,33.61
2022-10-23T08:13:17.350Z,33.64
2022-10-23T08:16:07.124Z,33.81
2022-10-23T08:19:07.979Z,33.90
2022-10-23T08:21:41.149Z,34.07
2022-10-23T08:24:15.473Z,34.17
2022-10-23T08:26:50.469Z,34.31
2022-10-23T08:29:25.243Z,34.30
2022-10-23T08:32:05.513Z,34.17
2022-10-23T08:34:53.125Z,33.91
2022-10-23T08:37:39.956Z,33.94
2022-10-23T08:40:17.429Z,33.99
2022-10-23T08:43:07.075Z,34.25
2022-10-23T08:45:44.019Z,34.39
2022-10-23T08:48:41.505Z,34.56
2022-10-23T08:51:45.925Z,34.60
2022-10-23T08:54:20.874Z,34.71
2022-10-23T08:57:21.901Z,34.70
2022-10-23T09:00:03.718Z,34.62
2022-10-23T09:02:46.871Z,34.37
2022-10-23T09:05:23.151Z,34.09
2022-10-23T09:08:09.809Z,34.12
2022-10-23T09:10:55.608Z,34.10
2022-10-23T09:13:33.107Z,33.96
2022-10-23T09:16:04.465Z,33.88
2022-10-23T09:18:35.976Z,33.83
2022-10-23T09:21:09.352Z,33.84
2022-10-23T09:23:40.864Z,34.02
2022-10-23T09:26:17.378Z,34.04
2022-10-23T09:28:49.386Z,33.96
2022-10-23T09:31:22.143Z,34.01
2022-10-23T09:34:10.978Z,34.00
2022-10-23T09:36:51.594Z,33.90
2022-10-23T09:39:32.038Z,33.88
2022-10-23T09:42:17.557Z,33.92
2022-10-23T09:44:55.648Z,33.76
2022-10-23T09:47:35.369Z,33.69
2022-10-23T09:50:31.659Z,33.75
2022-10-23T09:53:05.277Z,33.80
2022-10-23T09:55:37.348Z,33.75
2022-10-23T09:58:08.226Z,33.83
2022-10-23T10:00:55.415Z,33.93
2022-10-23T10:03:49.554Z,33.96
2022-10-23T10:06:25.549Z,33.87
2022-10-23T10:09:09.260Z,33.81
2022-10-23T10:11:40.546Z,33.82
2022-10-23T10:14:29.819Z,33.91
2022-10-23T10:17:20.114Z,34.00
2022-10-23T10:20:05.404Z,34.13
2022-10-23T10:22:43.292Z,34.07
2022-10-23T10:25:16.186Z,34.05
2022-10-23T10:27:49.224Z,34.17
2022-10-23T10:30:20.616Z,34.23
2022-10-23T10:33:00.191Z,34.33
2022-10-23T10:35:41.441Z,34.39
2022-10-23T10:38:20.819Z,34.37
2022-10-23T10:41:06.092Z,34.05
2022-10-23T10:43:45.811Z,33.92
2022-10-23T10:46:39.693Z,33.85
2022-10-23T10:49:28.733Z,33.91
2022-10-23T10:52:29.364Z,33.95
2022-10-23T10:55:29.382Z,33.89
2022-10-23T10:58:04.651Z,33.90
2022-10-23T11:00:35.437Z,33.91
2022-10-23T11:03:34.805Z,33.92
2022-10-23T11:06:07.064Z,33.82
2022-10-23T11:08:57.553Z,33.82
2022-10-23T11:11:37.483Z,33.74
2022-10-23T11:14:23.840Z,33.81
2022-10-23T11:17:16.872Z,33.93
2022-10-23T11:20:09.451Z,33.79
2022-10-23T11:22:50.980Z,34.39
2022-10-23T11:25:52.625Z,34.96
2022-10-23T11:28:49.002Z,35.03
2022-10-23T11:31:31.412Z,34.80
2022-10-23T11:34:05.098Z,34.66
2022-10-23T11:36:41.955Z,33.97
2022-10-23T11:39:20.566Z,33.86
2022-10-23T11:41:56.002Z,33.89
2022-10-23T11:44:52.300Z,33.91
2022-10-23T11:47:40.364Z,33.79
2022-10-23T11:50:10.794Z,33.73
2022-10-23T11:53:16.419Z,33.71
2022-10-23T11:56:17.737Z,33.85
2022-10-23T11:58:52.962Z,33.92
2022-10-23T12:01:36.321Z,35.04
2022-10-23T12:04:17.297Z,35.50
2022-10-23T12:07:31.782Z,34.69
2022-10-23T12:10:03.344Z,35.77
2022-10-23T12:12:35.805Z,35.91
2022-10-23T12:15:09.094Z,35.19
2022-10-23T12:17:44.317Z,34.93
2022-10-23T12:20:23.689Z,36.15
2022-10-23T12:23:08.296Z,35.64
2022-10-23T12:26:04.622Z,35.55
2022-10-23T12:28:36.980Z,35.62
2022-10-23T12:31:24.315Z,35.79
2022-10-23T12:33:53.828Z,35.88
2022-10-23T12:36:37.282Z,35.94
2022-10-23T12:39:29.704Z,36.07
2022-10-23T12:42:04.092Z,36.35
2022-10-23T12:44:34.376Z,36.50
2022-10-23T12:47:20.495Z,36.63
2022-10-23T12:53:12.811Z,37.03
2022-10-23T12:55:53.330Z,37.25
2022-10-23T12:58:41.437Z,37.39
2022-10-23T13:01:39.365Z,37.62
2022-10-23T13:04:31.791Z,37.78
2022-10-23T13:07:12.859Z,37.89
2022-10-23T13:09:45.577Z,37.99
2022-10-23T13:12:37.626Z,38.01
2022-10-23T13:15:09.536Z,38.23
2022-10-23T13:18:03.472Z,38.40
2022-10-23T13:29:38.518Z,39.51
2022-10-23T13:36:13.993Z,40.31
2022-10-23T13:38:45.626Z,40.65
2022-10-23T13:41:58.024Z,41.01
2022-10-23T13:45:25.315Z,41.44
2022-10-23T13:53:00.609Z,42.55
2022-10-23T13:55:45.474Z,43.01
2022-10-23T13:58:20.685Z,43.15
2022-10-23T14:00:52.228Z,43.35
2022-10-23T14:03:25.629Z,43.53
2022-10-23T14:06:07.934Z,43.66
2022-10-23T14:09:37.583Z,43.77
2022-10-23T14:13:04.720Z,43.63
2022-10-23T14:15:37.066Z,43.68
2022-10-23T14:19:07.072Z,43.72
2022-10-23T14:22:26.154Z,43.85
2022-10-23T14:25:09.336Z,43.78
2022-10-23T14:27:53.115Z,44.08
2022-10-23T14:30:24.009Z,43.90
2022-10-23T14:32:55.952Z,44.04
2022-10-23T14:35:31.137Z,44.19
2022-10-23T14:38:07.374Z,44.43
2022-10-23T14:40:45.086Z,44.98
2022-10-23T14:43:17.380Z,44.88
2022-10-23T14:45:49.635Z,44.64
2022-10-23T14:48:24.649Z,44.77
2022-10-23T14:51:04.281Z,45.18
2022-10-23T14:54:37.879Z,45.14
2022-10-23T14:57:43.178Z,45.28
2022-10-23T15:00:16.497Z,45.20
2022-10-23T15:02:52.371Z,45.20
2022-10-23T15:11:16.635Z,45.70
2022-10-23T15:13:45.280Z,45.90
2022-10-23T15:16:28.089Z,45.79
2022-10-23T15:19:18.701Z,45.79
2022-10-23T15:21:52.789Z,45.97
2022-10-23T15:29:48.490Z,46.39
2022-10-23T15:32:17.638Z,46.57
2022-10-23T15:38:43.491Z,46.96
2022-10-23T15:41:20.094Z,47.17
2022-10-23T15:46:33.980Z,47.50
2022-10-23T15:49:53.068Z,47.58
2022-10-23T15:56:02.764Z,47.47
2022-10-23T15:58:40.581Z,47.50
2022-10-23T16:01:17.093Z,47.51
2022-10-23T16:04:05.789Z,47.65
2022-10-23T16:06:36.530Z,47.59
2022-10-23T16:09:44.360Z,47.55
2022-10-23T16:12:39.915Z,47.65
2022-10-23T16:15:39.391Z,47.75
2022-10-23T16:18:37.503Z,47.88
2022-10-23T16:21:21.205Z,48.02
2022-10-23T16:24:22.115Z,48.02
2022-10-23T16:27:35.963Z,48.07
2022-10-23T16:30:40.293Z,48.15
2022-10-23T16:33:22.724Z,48.16
2022-10-23T16:36:16.560Z,48.32
2022-10-23T16:39:13.947Z,48.39
2022-10-23T16:42:11.767Z,48.28
2022-10-23T16:45:03.444Z,47.98
2022-10-23T16:48:03.615Z,48.05
2022-10-23T16:51:15.234Z,48.45
2022-10-23T16:54:31.667Z,48.71
2022-10-23T16:57:03.639Z,48.80
2022-10-23T16:59:43.901Z,49.00
2022-10-23T17:02:48.609Z,49.04
2022-10-23T17:06:12.434Z,49.10
2022-10-23T17:11:57.907Z,48.99
2022-10-23T17:14:33.687Z,48.92
2022-10-23T17:17:16.171Z,48.76
2022-10-23T17:20:09.721Z,48.85
2022-10-23T17:22:48.037Z,48.99
2022-10-23T17:25:23.030Z,49.16
2022-10-23T17:28:03.917Z,49.07
2022-10-23T17:30:40.257Z,49.19
2022-10-23T17:33:09.697Z,49.13
2022-10-23T17:35:56.477Z,49.02
2022-10-23T17:42:03.477Z,48.87
2022-10-23T17:44:33.091Z,48.98
2022-10-23T17:47:09.291Z,48.78
2022-10-23T17:49:53.868Z,48.84
2022-10-23T17:52:45.934Z,48.92
2022-10-23T17:55:17.687Z,49.02
2022-10-23T17:57:48.163Z,49.00
2022-10-23T18:01:05.626Z,48.74
2022-10-23T18:03:41.451Z,48.92
2022-10-23T18:06:52.183Z,48.92
2022-10-23T18:14:01.042Z,48.42
2022-10-23T18:16:53.760Z,48.33
2022-10-23T18:19:24.378Z,48.25
2022-10-23T18:22:16.038Z,48.34
2022-10-23T18:27:47.453Z,48.30
2022-10-23T18:34:44.921Z,48.58
2022-10-23T18:37:16.021Z,48.84
2022-10-23T18:40:03.304Z,49.30
2022-10-23T18:42:32.929Z,48.97
2022-10-23T18:45:12.054Z,48.99
2022-10-23T18:47:53.215Z,48.82
2022-10-23T18:50:41.864Z,48.71
2022-10-23T18:53:14.154Z,48.94
2022-10-23T18:56:05.487Z,48.96
2022-10-23T18:58:43.072Z,48.88
2022-10-23T19:01:44.955Z,48.79
2022-10-23T19:04:50.387Z,48.89
2022-10-23T19:11:13.607Z,49.10
2022-10-23T19:13:53.107Z,49.12
2022-10-23T19:17:12.396Z,49.63
2022-10-23T19:20:10.278Z,49.29
2022-10-23T19:23:07.169Z,49.03
2022-10-23T19:36:34.796Z,49.26
2022-10-23T19:39:15.289Z,49.30
2022-10-23T20:02:29.931Z,49.74
2022-10-23T20:05:53.946Z,49.60
2022-10-23T20:08:53.913Z,49.58
2022-10-23T20:12:04.481Z,49.66
2022-10-23T20:15:45.825Z,49.59
2022-10-23T20:22:26.011Z,49.52
2022-10-23T20:25:30.442Z,49.39
2022-10-23T20:29:29.519Z,49.73
2022-10-23T20:36:24.833Z,49.16
2022-10-23T20:47:23.183Z,49.33
2022-10-23T20:57:05.699Z,49.30
2022-10-23T21:04:34.180Z,49.14
2022-10-23T21:11:21.896Z,48.97
2022-10-23T21:13:54.790Z,49.01
2022-10-23T21:17:10.320Z,49.20
2022-10-23T21:19:52.389Z,49.09
2022-10-23T21:38:38.897Z,48.44
2022-10-23T21:41:13.202Z,48.20
2022-10-23T21:43:42.430Z,48.22
2022-10-23T21:46:23.827Z,48.18
2022-10-23T21:49:04.362Z,48.27
2022-10-23T21:51:45.016Z,48.30
2022-10-23T21:54:17.769Z,48.28
2022-10-23T21:56:51.882Z,47.93
2022-10-23T21:59:27.784Z,47.96
2022-10-23T22:02:41.975Z,47.84
2022-10-23T22:08:52.625Z,47.90
2022-10-23T22:11:23.666Z,48.07
2022-10-23T22:13:53.391Z,47.98
2022-10-23T22:20:47.862Z,47.76
2022-10-23T22:28:17.679Z,47.66
2022-10-23T22:31:21.741Z,47.52
2022-10-23T22:33:55.936Z,47.58
2022-10-23T22:36:40.098Z,47.59
2022-10-23T22:39:30.209Z,47.49
2022-10-23T22:42:17.608Z,47.48
2022-10-23T22:44:51.175Z,47.43
2022-10-23T22:47:21.240Z,47.37
2022-10-23T22:49:52.494Z,47.42
2022-10-23T22:52:24.372Z,47.42
2022-10-23T22:54:55.499Z,47.39
2022-10-23T22:57:33.501Z,47.36
2022-10-23T23:00:06.871Z,47.38
2022-10-23T23:02:45.655Z,47.22
2022-10-23T23:05:17.782Z,48.81
2022-10-23T23:07:49.195Z,47.35
2022-10-23T23:13:53.140Z,47.23
2022-10-23T23:16:34.123Z,46.89
2022-10-23T23:19:05.881Z,46.85
2022-10-23T23:21:37.532Z,46.73
2022-10-23T23:24:09.699Z,46.70
2022-10-23T23:26:40.962Z,46.68
2022-10-23T23:29:15.295Z,46.76
2022-10-23T23:31:49.866Z,46.74
2022-10-23T23:34:33.063Z,46.73
2022-10-23T23:37:14.077Z,46.68
2022-10-23T23:39:45.901Z,46.61
2022-10-23T23:42:17.133Z,46.62
2022-10-23T23:47:42.252Z,46.64
2022-10-23T23:50:16.052Z,46.68
2022-10-23T23:52:47.614Z,46.69
2022-10-23T23:55:21.570Z,46.70
2022-10-23T23:57:51.771Z,46.65
